Time;durP1;ratioP1;P1;durP2;ratioP2;P2;SDS_P1;SDS_P2;PMS_P1;PMS_P2;Temp;Humidity;BMP_temperature;BMP_pressure;BME280_temperature;BME280_humidity;BME280_pressure;Samples;Min_cycle;Max_cycle;Signal;HPM_P1;HPM_P2
2023/03/10 00:00:45;;;;;;;19.00;9.68;;;;;;;-11.31;79.22;99813.50;10523431;28;20049;-79
2023/03/10 00:05:47;;;;;;;24.55;10.68;;;;;;;-11.36;79.96;99814.97;10506292;28;20045;-77
2023/03/10 00:10:49;;;;;;;22.08;9.88;;;;;;;-11.49;79.09;99810.13;10489328;28;20060;-78
2023/03/10 00:15:51;;;;;;;19.73;10.00;;;;;;;-11.54;79.58;99815.06;10479646;28;20045;-78
2023/03/10 00:20:53;;;;;;;20.95;9.55;;;;;;;-11.57;79.98;99813.59;10520016;28;20051;-79
2023/03/10 00:25:57;;;;;;;23.90;11.75;;;;;;;-11.63;80.31;99810.72;10507090;28;20044;-78
2023/03/10 00:31:04;;;;;;;24.10;12.50;;;;;;;-11.80;80.44;99807.25;10505676;28;20489;-77
2023/03/10 00:36:12;;;;;;;24.17;11.70;;;;;;;-11.85;80.27;99811.31;10493471;28;20032;-78
2023/03/10 00:41:17;;;;;;;21.57;10.77;;;;;;;-11.73;81.51;99815.31;10519622;28;20051;-78
2023/03/10 00:46:19;;;;;;;18.55;9.07;;;;;;;-11.76;81.60;99819.13;10505572;28;20067;-78
2023/03/10 00:51:22;;;;;;;14.88;7.32;;;;;;;-11.72;81.97;99817.81;10522149;28;20418;-78
2023/03/10 00:56:25;;;;;;;11.45;6.10;;;;;;;-11.63;81.32;99813.38;10512967;28;20040;-78
2023/03/10 01:01:36;;;;;;;10.32;6.30;;;;;;;-11.62;81.47;99812.41;10521816;28;20549;-78
2023/03/10 01:06:38;;;;;;;13.38;6.57;;;;;;;-11.54;81.66;99803.66;10481643;28;20053;-78
2023/03/10 01:11:40;;;;;;;13.18;6.65;;;;;;;-11.45;81.71;99818.56;10521609;28;20049;-77
2023/03/10 01:16:42;;;;;;;12.25;6.35;;;;;;;-11.38;81.99;99812.50;10502817;28;20055;-77
2023/03/10 01:21:45;;;;;;;8.65;5.13;;;;;;;-11.42;81.76;99815.63;10524928;28;20417;-78
2023/03/10 01:26:47;;;;;;;8.13;4.93;;;;;;;-11.44;81.38;99823.72;10505490;28;20256;-77
2023/03/10 01:31:49;;;;;;;9.02;5.43;;;;;;;-11.45;81.08;99824.72;10491859;28;20049;-78
2023/03/10 01:36:51;;;;;;;9.30;5.18;;;;;;;-11.41;80.91;99820.75;10514185;28;20409;-77
2023/03/10 01:41:54;;;;;;;9.32;5.10;;;;;;;-11.41;81.09;99823.41;10525419;28;20044;-78
2023/03/10 01:46:57;;;;;;;8.40;4.90;;;;;;;-11.36;81.01;99826.41;10492433;28;20052;-78
2023/03/10 01:52:32;;;;;;;8.15;4.93;;;;;;;-11.33;80.78;99822.59;10505641;28;20056;-78
2023/03/10 01:58:02;;;;;;;8.43;4.97;;;;;;;-11.38;81.41;99833.66;10436801;28;20096;-78
2023/03/10 02:03:22;;;;;;;7.97;5.18;;;;;;;-11.40;81.25;99837.47;10490242;28;20402;-78
2023/03/10 02:08:30;;;;;;;10.70;4.93;;;;;;;-11.42;81.20;99837.63;10515478;28;20424;-77
2023/03/10 02:13:32;;;;;;;8.13;4.57;;;;;;;-11.37;81.38;99837.16;10514398;28;20041;-78
2023/03/10 02:18:34;;;;;;;9.48;5.10;;;;;;;-11.33;80.72;99844.59;10507693;28;20043;-77
2023/03/10 02:23:55;;;;;;;7.55;4.68;;;;;;;-11.36;80.72;99852.03;10499128;28;20068;-77
2023/03/10 02:28:59;;;;;;;8.48;5.20;;;;;;;-11.42;80.67;99861.47;10505182;28;20043;-77
2023/03/10 02:34:05;;;;;;;9.18;5.50;;;;;;;-11.47;80.50;99871.66;10496421;28;20036;-77
2023/03/10 02:39:08;;;;;;;10.32;6.13;;;;;;;-11.66;80.81;99875.38;10528784;28;20044;-77
2023/03/10 02:44:12;;;;;;;11.63;5.75;;;;;;;-11.82;80.81;99882.44;10510170;28;20052;-78
2023/03/10 02:49:16;;;;;;;7.60;4.78;;;;;;;-11.87;81.48;99886.38;10464106;28;20036;-78
2023/03/10 02:54:19;;;;;;;9.05;4.95;;;;;;;-11.79;81.29;99876.84;10512249;28;20044;-78
2023/03/10 02:59:22;;;;;;;9.40;4.60;;;;;;;-11.66;80.87;99879.84;10526712;28;20039;-78
2023/03/10 03:04:27;;;;;;;7.13;4.85;;;;;;;-11.64;81.68;99891.94;10511470;28;20383;-78
2023/03/10 03:09:30;;;;;;;5.97;4.20;;;;;;;-11.70;80.91;99886.44;10509576;28;20044;-78
2023/03/10 03:14:33;;;;;;;6.50;3.75;;;;;;;-11.69;80.37;99898.69;10485154;28;20425;-79
2023/03/10 03:19:37;;;;;;;6.07;3.67;;;;;;;-11.61;80.58;99899.59;10489719;28;20032;-78
2023/03/10 03:24:40;;;;;;;6.05;3.65;;;;;;;-11.65;80.69;99900.84;10526254;28;20052;-78
2023/03/10 03:29:43;;;;;;;5.95;3.60;;;;;;;-11.58;80.48;99903.72;10523073;28;20462;-78
2023/03/10 03:34:46;;;;;;;6.53;3.90;;;;;;;-11.63;80.60;99906.00;10508333;28;20044;-79
2023/03/10 03:39:49;;;;;;;5.90;3.85;;;;;;;-11.60;79.92;99905.72;10512721;28;20048;-77
2023/03/10 03:44:52;;;;;;;7.32;4.07;;;;;;;-11.60;80.28;99903.06;10515678;28;20048;-77
2023/03/10 03:49:55;;;;;;;6.57;4.03;;;;;;;-11.65;80.53;99905.31;10512549;28;20095;-78
2023/03/10 03:54:57;;;;;;;5.75;3.80;;;;;;;-11.68;80.25;99910.94;10483278;28;20037;-78
2023/03/10 04:00:00;;;;;;;6.68;3.65;;;;;;;-11.65;80.00;99902.69;10486067;28;20032;-78
2023/03/10 04:05:04;;;;;;;6.20;3.72;;;;;;;-11.66;80.14;99896.56;10519500;28;20433;-78
2023/03/10 04:10:11;;;;;;;4.43;2.95;;;;;;;-11.67;79.48;99891.44;10469285;28;20048;-79
2023/03/10 04:15:14;;;;;;;5.32;3.10;;;;;;;-11.67;79.18;99902.84;10504442;28;20099;-80
2023/03/10 04:20:17;;;;;;;4.68;3.08;;;;;;;-11.67;79.40;99894.91;10519683;28;20037;-79
2023/03/10 04:25:22;;;;;;;6.65;3.72;;;;;;;-11.67;79.26;99902.00;10505524;28;20425;-78
2023/03/10 04:30:28;;;;;;;4.90;3.05;;;;;;;-11.65;79.76;99902.69;10503993;28;20037;-78
2023/03/10 04:35:33;;;;;;;5.85;3.25;;;;;;;-11.67;79.39;99909.94;10506287;28;20497;-80
2023/03/10 04:40:36;;;;;;;4.78;2.97;;;;;;;-11.59;79.63;99912.66;10507346;28;20048;-79
2023/03/10 04:45:39;;;;;;;6.97;3.83;;;;;;;-11.43;79.07;99907.44;10504963;28;20028;-78
2023/03/10 04:51:06;;;;;;;6.57;2.92;;;;;;;-11.14;78.85;99908.88;10505660;28;20052;-78
2023/03/10 04:56:13;;;;;;;5.85;3.40;;;;;;;-10.45;78.43;99908.56;10500789;28;20621;-79
2023/03/10 05:01:17;;;;;;;5.20;3.60;;;;;;;-9.61;77.29;99920.59;10485706;28;20043;-79
2023/03/10 05:06:26;;;;;;;5.60;3.55;;;;;;;-8.92;74.82;99918.22;10490484;28;20445;-79
2023/03/10 05:11:42;;;;;;;9.25;4.28;;;;;;;-8.28;72.42;99914.34;10544322;28;20060;-78
2023/03/10 05:16:47;;;;;;;6.07;4.00;;;;;;;-8.44;71.19;99929.59;10530014;28;20032;-78
2023/03/10 05:21:49;;;;;;;8.13;3.90;;;;;;;-8.65;71.04;99919.59;10523622;28;20044;-78
2023/03/10 05:26:51;;;;;;;4.72;3.90;;;;;;;-8.58;70.56;99931.19;10486516;28;20044;-78
2023/03/10 05:31:54;;;;;;;7.80;3.80;;;;;;;-8.68;70.32;99922.59;10488672;28;20406;-78
2023/03/10 05:37:02;;;;;;;6.53;3.72;;;;;;;-8.77;70.52;99927.13;10481590;28;20052;-79
2023/03/10 05:42:04;;;;;;;6.65;4.07;;;;;;;-8.72;70.36;99930.09;10528400;28;20556;-78
2023/03/10 05:47:09;;;;;;;5.95;3.58;;;;;;;-8.52;69.94;99941.09;10468626;28;20051;-79
2023/03/10 05:52:12;;;;;;;8.27;4.00;;;;;;;-7.87;69.28;99937.97;10526539;28;20044;-79
2023/03/10 05:57:16;;;;;;;6.20;4.10;;;;;;;-7.87;68.36;99937.97;10473561;28;20418;-79
2023/03/10 06:02:18;;;;;;;5.55;3.55;;;;;;;-7.97;68.69;99950.72;10508064;28;20417;-80
2023/03/10 06:07:20;;;;;;;6.28;4.13;;;;;;;-8.02;68.28;99948.56;10519872;28;20051;-79
2023/03/10 06:12:23;;;;;;;8.95;4.53;;;;;;;-8.08;68.97;99943.97;10520179;28;20040;-78
2023/03/10 06:17:25;;;;;;;9.05;4.07;;;;;;;-8.24;68.91;99952.88;10521570;28;20074;-78
2023/03/10 06:22:27;;;;;;;7.53;3.97;;;;;;;-8.31;70.19;99953.78;10495362;28;20040;-78
2023/03/10 06:27:31;;;;;;;5.95;3.70;;;;;;;-8.17;70.68;99968.13;10482127;28;20051;-78
2023/03/10 06:32:33;;;;;;;7.10;3.60;;;;;;;-8.02;71.11;99961.03;10494715;28;20033;-80
2023/03/10 06:37:36;;;;;;;8.50;4.13;;;;;;;-7.80;70.77;99957.56;10519752;28;20619;-79
2023/03/10 06:42:39;;;;;;;5.95;3.33;;;;;;;-7.65;70.09;99958.41;10490613;28;20032;-78
2023/03/10 06:47:43;;;;;;;7.15;4.00;;;;;;;-7.47;70.16;99960.72;10528805;28;20037;-80
2023/03/10 06:52:45;;;;;;;5.05;3.20;;;;;;;-7.04;69.17;99972.47;10491263;28;20039;-78
2023/03/10 06:57:48;;;;;;;6.15;3.20;;;;;;;-6.74;68.10;99983.13;10519588;28;20040;-78
2023/03/10 07:02:50;;;;;;;5.03;3.13;;;;;;;-6.58;66.57;99968.75;10474254;28;20045;-77
2023/03/10 07:07:53;;;;;;;8.50;3.30;;;;;;;-6.31;66.25;99980.56;10495250;28;20068;-78
2023/03/10 07:12:57;;;;;;;6.00;2.72;;;;;;;-5.96;65.31;99992.22;10518070;28;20047;-81
2023/03/10 07:18:00;;;;;;;7.05;3.65;;;;;;;-5.60;64.22;99989.47;10499905;28;20093;-78
2023/03/10 07:23:02;;;;;;;7.85;3.35;;;;;;;-5.26;63.24;99989.53;10532644;28;20058;-79
2023/03/10 07:28:06;;;;;;;7.60;3.30;;;;;;;-5.18;62.27;99988.56;10532255;28;20504;-80
2023/03/10 07:33:08;;;;;;;8.40;3.92;;;;;;;-5.32;61.75;100000.19;10514990;28;20398;-81
2023/03/10 07:38:11;;;;;;;8.73;4.63;;;;;;;-5.27;61.08;100003.91;10532937;28;20130;-79
2023/03/10 07:43:13;;;;;;;10.30;4.20;;;;;;;-5.42;60.72;100005.84;10533175;28;20040;-79
2023/03/10 07:48:16;;;;;;;10.30;4.00;;;;;;;-5.65;60.55;100010.59;10515353;28;20067;-81
2023/03/10 07:53:18;;;;;;;8.85;4.15;;;;;;;-5.08;59.32;100007.75;10532848;28;20037;-84
2023/03/10 07:58:20;;;;;;;7.35;3.95;;;;;;;-5.10;58.89;100019.69;10503242;28;20048;-81
2023/03/10 08:03:24;;;;;;;9.25;3.97;;;;;;;-5.01;58.42;100021.19;10529897;28;20075;-81
2023/03/10 08:08:27;;;;;;;7.03;4.18;;;;;;;-4.61;57.24;100017.72;10514820;28;20049;-78
2023/03/10 08:13:35;;;;;;;5.75;3.50;;;;;;;-4.22;55.86;100007.41;10511042;28;20418;-79
2023/03/10 08:18:37;;;;;;;5.32;3.08;;;;;;;-3.19;54.45;100008.81;10496490;28;20044;-79
2023/03/10 08:23:39;;;;;;;6.75;3.28;;;;;;;-1.95;51.30;100005.97;10513339;28;20440;-77
2023/03/10 08:28:42;;;;;;;5.53;3.25;;;;;;;-1.23;48.09;100002.78;10464950;28;20044;-79
2023/03/10 08:33:44;;;;;;;3.10;2.65;;;;;;;-0.43;47.53;100005.50;10493500;28;20056;-78
2023/03/10 08:38:47;;;;;;;6.55;3.20;;;;;;;-0.37;46.39;100007.31;10472525;28;20047;-79
2023/03/10 08:43:51;;;;;;;6.78;3.13;;;;;;;-0.14;45.96;100000.41;10513175;28;20043;-80
2023/03/10 08:48:54;;;;;;;4.45;2.78;;;;;;;-0.24;45.88;100000.94;10529901;28;20413;-78
2023/03/10 08:53:56;;;;;;;4.63;2.70;;;;;;;-0.02;45.34;100004.78;10511329;28;20051;-78
2023/03/10 08:58:59;;;;;;;4.60;2.50;;;;;;;-0.67;45.16;100006.41;10522319;28;20055;-78
2023/03/10 09:04:07;;;;;;;4.17;2.50;;;;;;;-0.78;46.23;99999.88;10509373;28;20051;-79
2023/03/10 09:09:13;;;;;;;3.85;2.13;;;;;;;-1.47;46.38;100013.53;10470047;28;20406;-78
2023/03/10 09:14:19;;;;;;;7.95;2.75;;;;;;;-2.66;49.21;100017.59;10499304;28;20466;-80
2023/03/10 09:19:21;;;;;;;3.85;2.40;;;;;;;-3.18;50.65;100021.19;10526198;28;20493;-79
2023/03/10 09:24:25;;;;;;;3.83;2.05;;;;;;;-3.29;51.47;100019.97;10487523;28;20041;-78
2023/03/10 09:29:28;;;;;;;4.45;2.03;;;;;;;-3.50;51.30;100015.59;10470911;28;20052;-79
2023/03/10 09:34:34;;;;;;;3.53;1.83;;;;;;;-3.70;51.71;100025.47;10494848;28;20417;-78
2023/03/10 09:39:36;;;;;;;2.28;1.60;;;;;;;-3.98;52.22;100031.00;10477537;28;20045;-78
2023/03/10 09:44:56;;;;;;;3.03;1.65;;;;;;;-4.08;52.53;100031.34;10488765;28;20547;-80
2023/03/10 09:50:31;;;;;;;5.22;2.00;;;;;;;-4.15;52.92;100030.53;10494728;28;20041;-78
2023/03/10 09:55:35;;;;;;;2.35;1.42;;;;;;;-4.05;52.37;100044.34;10492219;28;20064;-78
2023/03/10 10:00:40;;;;;;;3.70;1.50;;;;;;;-4.07;52.30;100041.03;10472260;28;20387;-79
2023/03/10 10:05:43;;;;;;;2.42;1.52;;;;;;;-4.09;51.82;100032.38;10479405;28;20051;-80
2023/03/10 10:10:48;;;;;;;5.03;1.50;;;;;;;-4.06;52.16;100036.50;10465209;28;20048;-79
2023/03/10 10:16:15;;;;;;;4.70;1.58;;;;;;;-4.15;52.21;100041.22;10491772;28;20059;-79
2023/03/10 10:21:21;;;;;;;1.73;1.17;;;;;;;-4.13;52.12;100038.34;10510877;28;20059;-77
2023/03/10 10:26:26;;;;;;;1.90;1.20;;;;;;;-4.18;52.28;100041.59;10523144;28;20064;-77
2023/03/10 10:31:30;;;;;;;2.05;1.23;;;;;;;-4.14;51.70;100039.38;10513760;28;20078;-79
2023/03/10 10:36:35;;;;;;;2.58;1.10;;;;;;;-3.96;51.79;100035.13;10522737;28;20041;-79
2023/03/10 10:41:37;;;;;;;3.60;1.73;;;;;;;-3.84;51.63;100039.88;10534535;28;20532;-79
2023/03/10 10:46:55;;;;;;;3.13;1.40;;;;;;;-3.82;51.57;100037.81;10497090;28;20067;-78
2023/03/10 10:52:02;;;;;;;1.85;1.40;;;;;;;-3.83;52.07;100041.53;10516688;28;20398;-79
2023/03/10 10:57:16;;;;;;;2.67;1.20;;;;;;;-3.81;51.38;100042.16;10517135;28;20059;-78
2023/03/10 11:02:19;;;;;;;1.50;0.98;;;;;;;-3.87;51.41;100045.63;10507101;28;20935;-78
2023/03/10 11:07:26;;;;;;;2.05;1.17;;;;;;;-3.78;51.29;100041.75;10531523;28;20126;-77
2023/03/10 11:12:35;;;;;;;4.43;1.40;;;;;;;-3.76;51.50;100045.88;10491427;28;20421;-80
2023/03/10 11:17:56;;;;;;;3.22;2.47;;;;;;;-3.68;51.52;100031.44;10523474;28;20036;-79
2023/03/10 11:23:15;;;;;;;1.52;0.95;;;;;;;-3.74;50.90;100038.47;10461354;28;20045;-78
2023/03/10 11:28:26;;;;;;;;;;;;;;;-3.73;51.51;100047.31;10473914;28;20041;-79
2023/03/10 11:33:49;;;;;;;1.80;0.88;;;;;;;-3.71;51.80;100042.59;10499720;28;19919;-79
2023/03/10 11:38:58;;;;;;;1.73;1.33;;;;;;;-3.70;51.14;100044.25;10556486;28;20052;-79
2023/03/10 11:44:31;;;;;;;6.35;1.23;;;;;;;-3.71;50.70;100042.59;10555454;28;20036;-78
2023/03/10 11:49:35;;;;;;;1.15;1.00;;;;;;;-3.69;51.14;100046.72;10533985;28;20037;-80
2023/03/10 11:54:41;;;;;;;2.15;1.02;;;;;;;-3.75;50.99;100052.06;10496073;28;20044;-79
2023/03/10 11:59:56;;;;;;;0.60;0.60;;;;;;;-3.69;51.34;100044.03;10531209;28;20040;-78
2023/03/10 12:05:20;;;;;;;1.48;1.00;;;;;;;-3.65;51.52;100044.44;10510027;28;20040;-78
2023/03/10 12:10:22;;;;;;;1.27;0.93;;;;;;;-3.58;51.38;100042.63;10478083;28;20521;-79
2023/03/10 12:15:29;;;;;;;5.05;1.17;;;;;;;-3.51;51.88;100039.94;10529744;28;20040;-77
2023/03/10 12:20:32;;;;;;;4.78;1.15;;;;;;;-3.40;52.16;100047.38;10529044;28;20405;-77
2023/03/10 12:25:44;;;;;;;1.33;1.00;;;;;;;-3.42;51.65;100047.59;10498220;28;20055;-79
2023/03/10 12:30:55;;;;;;;5.05;1.25;;;;;;;-3.21;52.10;100033.16;10511771;28;20502;-79
2023/03/10 12:36:14;;;;;;;2.25;1.35;;;;;;;-3.12;52.39;100041.84;10530358;28;20028;-79
2023/03/10 12:41:25;;;;;;;2.35;1.30;;;;;;;-3.13;52.03;100043.66;10493196;28;20485;-77
2023/03/10 12:46:53;;;;;;;1.40;1.17;;;;;;;-3.12;52.04;100041.84;10511316;28;20052;-79
2023/03/10 12:52:22;;;;;;;3.72;1.45;;;;;;;-3.19;52.44;100035.63;10510789;28;20037;-78
2023/03/10 12:57:28;;;;;;;;;;;;;;;-3.21;53.40;100043.06;10493702;28;20429;-78
2023/03/10 13:02:54;;;;;;;2.40;1.15;;;;;;;-3.23;53.12;100045.13;10511383;28;19920;-78
2023/03/10 13:08:00;;;;;;;1.63;1.25;;;;;;;-3.28;54.09;100047.63;10488762;28;20449;-80
2023/03/10 13:13:04;;;;;;;1.83;1.10;;;;;;;-3.30;54.13;100050.47;10492301;28;20059;-78
2023/03/10 13:18:13;;;;;;;1.77;0.82;;;;;;;-3.33;54.32;100057.09;10508242;28;20511;-78
2023/03/10 13:23:26;;;;;;;1.38;1.00;;;;;;;-3.36;55.02;100046.75;10485420;28;20047;-78
2023/03/10 13:28:30;;;;;;;1.55;1.10;;;;;;;-3.38;55.56;100056.88;10513742;28;20516;-81
2023/03/10 13:33:33;;;;;;;5.20;1.02;;;;;;;-3.38;56.27;100061.41;10474039;28;20036;-81
2023/03/10 13:38:41;;;;;;;3.28;1.10;;;;;;;-3.43;56.93;100055.84;10479898;28;20051;-79
2023/03/10 13:43:49;;;;;;;2.72;1.35;;;;;;;-3.46;57.50;100050.91;10511079;28;20038;-79
2023/03/10 13:48:52;;;;;;;3.22;1.00;;;;;;;-3.52;57.76;100054.38;10504398;28;20028;-78
2023/03/10 13:54:00;;;;;;;1.08;0.80;;;;;;;-3.53;58.51;100055.41;10485613;28;20047;-79
2023/03/10 13:59:03;;;;;;;1.45;1.13;;;;;;;-3.53;59.08;100052.72;10507770;28;20124;-79
2023/03/10 14:04:07;;;;;;;1.15;0.90;;;;;;;-3.53;59.15;100053.56;10506074;28;20383;-78
2023/03/10 14:09:16;;;;;;;2.97;1.10;;;;;;;-3.51;59.45;100042.63;10501826;28;19927;-80
2023/03/10 14:14:33;;;;;;;3.08;1.85;;;;;;;-3.52;59.67;100047.16;10514586;28;20037;-79
2023/03/10 14:19:46;;;;;;;1.67;1.48;;;;;;;-3.52;58.85;100051.69;10523983;28;20051;-79
2023/03/10 14:24:49;;;;;;;1.10;1.00;;;;;;;-3.59;59.36;100045.50;10504853;28;20045;-78
2023/03/10 14:29:54;;;;;;;1.23;0.90;;;;;;;-3.58;59.06;100053.34;10506682;28;20047;-79
2023/03/10 14:34:57;;;;;;;1.00;0.95;;;;;;;-3.61;59.35;100052.94;10513234;28;20036;-78
2023/03/10 14:40:12;;;;;;;2.00;1.35;;;;;;;-3.64;59.71;100048.81;10520138;28;20040;-80
2023/03/10 14:45:32;;;;;;;3.00;1.67;;;;;;;-3.69;59.92;100052.06;10502815;28;20087;-77
2023/03/10 14:50:35;;;;;;;1.80;1.05;;;;;;;-3.73;59.69;100055.38;10536569;28;20047;-78
2023/03/10 14:55:38;;;;;;;1.83;1.10;;;;;;;-3.77;60.34;100048.78;10509954;28;20048;-81
2023/03/10 15:00:40;;;;;;;2.78;1.23;;;;;;;-3.78;60.20;100052.47;10488314;28;20563;-78
2023/03/10 15:05:42;;;;;;;3.03;1.30;;;;;;;-3.82;60.65;100057.41;10510383;28;20391;-79
2023/03/10 15:10:47;;;;;;;4.10;1.05;;;;;;;-3.75;61.39;100062.78;10511177;28;20064;-80
2023/03/10 15:15:49;;;;;;;3.08;2.15;;;;;;;-0.65;62.30;100052.81;10515605;28;20075;-79
2023/03/10 15:20:57;;;;;;;7.45;3.45;;;;;;;0.78;58.03;100044.97;10505158;28;20481;-79
2023/03/10 15:26:02;;;;;;;9.63;3.10;;;;;;;0.38;57.60;100046.63;10494200;28;20057;-79
2023/03/10 15:31:05;;;;;;;2.88;1.60;;;;;;;-0.06;52.65;100049.44;10531891;28;20174;-78
2023/03/10 15:36:10;;;;;;;2.38;1.35;;;;;;;-1.01;52.61;100064.34;10477891;28;20045;-78
2023/03/10 15:41:12;;;;;;;2.92;1.70;;;;;;;-1.73;53.70;100058.41;10529425;28;20051;-78
2023/03/10 15:46:15;;;;;;;2.60;1.60;;;;;;;-2.15;53.78;100071.38;10501459;28;20044;-80
2023/03/10 15:51:19;;;;;;;2.63;0.82;;;;;;;-2.61;54.75;100071.50;10514458;28;20041;-77
2023/03/10 15:56:23;;;;;;;2.50;1.33;;;;;;;-2.85;54.81;100082.91;10513127;28;20540;-78
2023/03/10 16:01:25;;;;;;;2.10;1.58;;;;;;;-2.96;54.98;100080.84;10508590;28;20048;-78
2023/03/10 16:06:28;;;;;;;2.05;1.10;;;;;;;-2.89;55.07;100089.72;10497135;28;20036;-78
2023/03/10 16:11:30;;;;;;;1.95;1.60;;;;;;;-3.20;54.88;100093.00;10512238;28;20522;-79
2023/03/10 16:16:32;;;;;;;2.03;1.48;;;;;;;-3.25;54.95;100088.28;10508105;28;20044;-77
2023/03/10 16:21:34;;;;;;;2.65;1.30;;;;;;;-3.24;54.81;100087.22;10529620;28;20041;-78
2023/03/10 16:26:36;;;;;;;2.33;1.67;;;;;;;-3.43;54.30;100093.41;10537296;28;20070;-78
2023/03/10 16:31:39;;;;;;;1.95;1.35;;;;;;;-3.42;54.55;100103.09;10511642;28;20292;-77
2023/03/10 16:36:41;;;;;;;3.70;2.08;;;;;;;-3.53;53.92;100107.19;10512181;28;20044;-78
2023/03/10 16:41:43;;;;;;;2.65;2.15;;;;;;;-3.61;53.49;100109.25;10507687;28;20401;-80
2023/03/10 16:46:45;;;;;;;2.80;1.52;;;;;;;-3.77;53.42;100105.06;10460070;28;20079;-81
2023/03/10 16:51:47;;;;;;;1.48;1.20;;;;;;;-3.86;52.01;100116.97;10498392;28;20036;-80
2023/03/10 16:56:52;;;;;;;1.58;1.20;;;;;;;-3.99;52.21;100120.44;10514144;28;20410;-79
2023/03/10 17:01:54;;;;;;;1.55;1.08;;;;;;;-4.07;52.11;100117.91;10520940;28;20044;-79
2023/03/10 17:07:21;;;;;;;2.35;1.30;;;;;;;-4.31;51.67;100113.88;10501816;28;20045;-80
2023/03/10 17:12:23;;;;;;;1.70;1.10;;;;;;;-4.50;51.33;100122.63;10506337;28;20505;-80
2023/03/10 17:17:31;;;;;;;1.92;1.13;;;;;;;-4.63;50.85;100124.19;10513092;28;20032;-81
2023/03/10 17:22:35;;;;;;;3.65;1.40;;;;;;;-4.60;50.75;100129.16;10522825;28;20044;-80
2023/03/10 17:27:37;;;;;;;6.55;1.70;;;;;;;-4.44;50.49;100125.34;10521745;28;20051;-80
2023/03/10 17:32:39;;;;;;;4.22;1.83;;;;;;;-4.49;49.77;100121.59;10517774;28;20062;-81
2023/03/10 17:37:46;;;;;;;5.57;1.48;;;;;;;-4.47;49.89;100128.41;10525550;28;20060;-82
2023/03/10 17:42:52;;;;;;;7.35;2.45;;;;;;;-4.37;49.92;100128.88;10506250;28;20052;-78
2023/03/10 17:47:54;;;;;;;3.65;2.05;;;;;;;-4.36;50.28;100135.88;10500490;28;21135;-80
2023/03/10 17:53:22;;;;;;;2.80;1.45;;;;;;;-4.52;50.80;100138.03;10508688;28;20040;-78
2023/03/10 17:58:25;;;;;;;;;;;;;;;-4.56;50.77;100133.09;10494002;28;20054;-80
2023/03/10 18:03:28;;;;;;;3.03;1.55;;;;;;;-4.53;50.74;100150.59;10493781;28;19916;-80
2023/03/10 18:08:31;;;;;;;4.25;1.90;;;;;;;-4.64;51.56;100133.25;10508577;28;20052;-81
2023/03/10 18:13:37;;;;;;;6.93;1.88;;;;;;;-4.74;51.64;100145.28;10518141;28;20037;-80
2023/03/10 18:18:40;;;;;;;3.05;1.42;;;;;;;-4.83;52.09;100146.47;10475688;28;20044;-80
2023/03/10 18:23:42;;;;;;;2.92;1.40;;;;;;;-4.97;52.63;100148.19;10506737;28;20040;-81
2023/03/10 18:28:45;;;;;;;4.07;2.28;;;;;;;-5.01;53.03;100139.75;10489255;28;20047;-80
2023/03/10 18:33:53;;;;;;;3.85;1.77;;;;;;;-5.19;52.81;100140.19;10494801;28;20036;-80
2023/03/10 18:38:55;;;;;;;3.07;1.87;;;;;;;-5.33;53.28;100143.75;10522749;28;20517;-79
2023/03/10 18:44:03;;;;;;;2.47;1.60;;;;;;;-5.49;53.13;100138.63;10511477;28;20037;-78
2023/03/10 18:49:09;;;;;;;2.03;1.45;;;;;;;-5.56;53.88;100137.72;10505995;28;20063;-78
2023/03/10 18:54:11;;;;;;;1.70;1.55;;;;;;;-5.59;53.32;100138.94;10511586;28;20041;-79
2023/03/10 18:59:14;;;;;;;1.45;1.17;;;;;;;-5.51;54.05;100146.84;10513742;28;20041;-81
2023/03/10 19:04:17;;;;;;;1.90;1.27;;;;;;;-5.53;53.44;100142.72;10507311;28;20055;-79
2023/03/10 19:09:23;;;;;;;3.47;1.67;;;;;;;-5.49;53.65;100144.00;10523294;28;20425;-79
2023/03/10 19:14:54;;;;;;;3.72;1.67;;;;;;;-5.27;53.63;100153.69;10511734;28;20044;-79
2023/03/10 19:19:57;;;;;;;4.82;2.88;;;;;;;-5.33;53.47;100143.75;10510459;28;20048;-80
2023/03/10 19:25:03;;;;;;;8.88;3.60;;;;;;;-5.44;53.71;100152.25;10527281;28;20043;-80
2023/03/10 19:30:12;;;;;;;8.38;4.32;;;;;;;-5.50;54.26;100148.50;10473810;28;20045;-80
2023/03/10 19:35:19;;;;;;;3.80;2.67;;;;;;;-5.54;53.80;100157.94;10525024;28;20035;-80
2023/03/10 19:40:21;;;;;;;4.50;2.72;;;;;;;-5.36;54.21;100159.34;10498714;28;20043;-80
2023/03/10 19:45:28;;;;;;;4.72;3.13;;;;;;;-5.33;53.69;100150.94;10502658;28;20055;-80
2023/03/10 19:50:30;;;;;;;6.93;3.20;;;;;;;-4.58;57.94;100158.41;10524113;28;20063;-79
2023/03/10 19:55:32;;;;;;;5.18;2.65;;;;;;;-3.35;58.08;100142.31;10529636;28;20449;-79
2023/03/10 20:00:34;;;;;;;6.60;3.03;;;;;;;-3.37;56.90;100151.59;10528658;28;20036;-79
2023/03/10 20:05:37;;;;;;;6.07;3.20;;;;;;;-2.86;55.04;100146.50;10527117;28;20048;-79
2023/03/10 20:10:44;;;;;;;6.50;2.97;;;;;;;-2.71;53.91;100148.16;10505683;28;20060;-81
2023/03/10 20:15:46;;;;;;;16.25;7.97;;;;;;;-2.15;52.57;100146.66;10454661;28;20041;-80
2023/03/10 20:20:48;;;;;;;6.00;2.95;;;;;;;-2.77;51.80;100141.78;10511891;28;20037;-80
2023/03/10 20:26:05;;;;;;;8.77;3.58;;;;;;;-2.60;53.11;100142.19;10533999;28;20048;-81
2023/03/10 20:31:08;;;;;;;8.93;4.30;;;;;;;-2.77;50.97;100139.09;10522561;28;20037;-80
2023/03/10 20:36:14;;;;;;;8.35;4.18;;;;;;;-2.61;52.25;100145.88;10521915;28;20032;-81
2023/03/10 20:41:18;;;;;;;9.32;3.47;;;;;;;-2.60;51.64;100144.88;10501908;28;20037;-79
2023/03/10 20:46:30;;;;;;;8.93;3.92;;;;;;;-2.87;51.86;100146.72;10518518;28;20040;-79
2023/03/10 20:51:32;;;;;;;9.90;4.18;;;;;;;-3.10;52.54;100152.47;10521444;28;20040;-80
2023/03/10 20:56:35;;;;;;;9.32;5.05;;;;;;;-2.67;51.97;100144.84;10514277;28;20460;-77
2023/03/10 21:01:41;;;;;;;10.88;4.63;;;;;;;-2.41;51.17;100149.41;10507315;28;20045;-81
2023/03/10 21:06:43;;;;;;;10.68;4.95;;;;;;;-2.52;51.35;100158.91;10496360;28;20052;-79
2023/03/10 21:11:45;;;;;;;8.07;4.15;;;;;;;-2.59;51.78;100157.25;10497377;28;20262;-79
2023/03/10 21:16:47;;;;;;;8.85;4.50;;;;;;;-3.11;52.10;100158.88;10525838;28;20620;-79
2023/03/10 21:21:50;;;;;;;7.55;4.15;;;;;;;-3.19;52.74;100162.56;10523353;28;20040;-79
2023/03/10 21:26:52;;;;;;;10.88;4.65;;;;;;;-3.42;52.51;100159.41;10508831;28;20040;-79
2023/03/10 21:31:54;;;;;;;7.95;4.78;;;;;;;-3.85;52.54;100165.03;10511816;28;20036;-78
2023/03/10 21:36:57;;;;;;;5.93;4.25;;;;;;;-3.54;52.99;100161.84;10480329;28;20516;-79
2023/03/10 21:41:59;;;;;;;7.63;4.15;;;;;;;-3.67;52.71;100167.16;10484099;28;20041;-79
2023/03/10 21:47:01;;;;;;;11.13;4.20;;;;;;;-4.17;52.16;100161.13;10512594;28;20036;-80
2023/03/10 21:52:03;;;;;;;7.47;2.95;;;;;;;-3.91;52.81;100165.81;10500328;28;20055;-78
2023/03/10 21:57:06;;;;;;;6.75;3.45;;;;;;;-3.37;51.24;100159.63;10520888;28;20041;-78
2023/03/10 22:02:21;;;;;;;7.30;3.28;;;;;;;-3.26;51.18;100158.22;10496266;28;20036;-83
2023/03/10 22:07:23;;;;;;;7.28;3.22;;;;;;;-3.27;50.81;100164.63;10513311;28;20044;-83
2023/03/10 22:12:25;;;;;;;5.57;2.72;;;;;;;-3.12;50.21;100166.09;10464765;28;20060;-80
2023/03/10 22:17:27;;;;;;;4.10;2.65;;;;;;;-3.62;49.75;100170.09;10510442;28;20509;-81
2023/03/10 22:22:30;;;;;;;5.97;2.60;;;;;;;-3.65;50.05;100170.47;10488323;28;20067;-81
2023/03/10 22:27:32;;;;;;;6.45;3.08;;;;;;;-3.50;49.29;100184.56;10525177;28;20580;-80
2023/03/10 22:32:34;;;;;;;7.97;3.25;;;;;;;-4.08;50.47;100176.03;10516358;28;20040;-79
2023/03/10 22:37:37;;;;;;;7.55;4.10;;;;;;;-4.02;50.51;100175.25;10527758;28;20048;-79
2023/03/10 22:42:39;;;;;;;6.00;3.72;;;;;;;-3.92;50.14;100169.53;10529137;28;20044;-78
2023/03/10 22:47:42;;;;;;;6.43;3.47;;;;;;;-3.96;50.31;100169.09;10527614;28;20052;-79
2023/03/10 22:52:44;;;;;;;6.25;3.35;;;;;;;-3.97;49.98;100156.75;10510620;28;20044;-80
2023/03/10 22:57:46;;;;;;;4.45;2.97;;;;;;;-3.53;49.40;100168.03;10530105;28;20051;-78
2023/03/10 23:02:49;;;;;;;7.60;3.90;;;;;;;-2.87;48.83;100169.03;10528811;28;20040;-78
2023/03/10 23:07:52;;;;;;;10.85;3.78;;;;;;;-3.04;47.86;100173.13;10525947;28;20041;-79
2023/03/10 23:12:55;;;;;;;8.52;3.80;;;;;;;-3.99;48.66;100187.44;10531643;28;20040;-79
2023/03/10 23:17:57;;;;;;;7.90;4.30;;;;;;;-3.61;48.98;100174.41;10511663;28;20048;-80
2023/03/10 23:23:01;;;;;;;13.68;4.82;;;;;;;-3.56;47.68;100182.69;10529532;28;20049;-77